• Join FlightAware (Why Join?)
  • Login
  • US Flag 
02:44PM EDT


 

Airport Tracker/Info


-or-


 

Live Flight TrackerFlight Track Log ✈ AAY800 ✈ 10-Apr-2014 ✈ KPIE - KTOL

Flight Track Log - Related Links

Times and Time Zones

All times are in EDT time to prevent confusion due to time zone crossing. See the AAY800 flight status page for this flight to view local times or setup timezone preferences in your user account.

Time Position Orientation Groundspeed Altitude Reporting Facility
EDT Latitude Longitude Course Direction KTS MPH feet Rate Location/Type
05:13PM 27.9333 -82.7000 24° Northeast 154 177 900  Level Tampa TRACON
05:13PM 27.9667 -82.6833 North 190 219 2,200 1,860 Climbing Tampa TRACON
05:14PM 28.0333 -82.6833 360° North 290 334 4,500 2,700 Climbing Tampa TRACON
05:15PM 28.1167 -82.6833 360° North 291 335 7,700 2,400 Climbing Tampa TRACON
05:18PM 28.3311 -82.6047 18° North 332 382 13,000 1,920 Climbing Jacksonville Center
05:24PM 29.0311 -82.6180 358° North 430 495 25,200 1,860 Climbing FlightAware ADS-B (KMCO)
05:25PM 29.1317 -82.6226 358° North 429 494 26,800 1,500 Climbing FlightAware ADS-B (KMCO)
05:26PM 29.1903 -82.6254 358° North 438 504 27,300 1,140 Climbing FlightAware ADS-B (KMCO)
05:29PM 29.5823 -82.6433 358° North 461 531 31,000 1,140 Climbing FlightAware ADS-B (KMCO)
05:29PM 29.6681 -82.6414 North 473 544 31,800 1,320 Climbing FlightAware ADS-B (KMCO)
05:30PM 29.7890 -82.6326 North 463 533 33,100 1,440 Climbing FlightAware ADS-B (KMCO)
05:31PM 29.8777 -82.6267 North 463 533 34,100 1,020 Climbing FlightAware ADS-B (KMCO)
05:32PM 29.9552 -82.6213 North 461 531 34,600 1,020 Climbing FlightAware ADS-B (KMCO)
05:32PM 30.0418 -82.6149 North 457 526 35,500 1,140 Climbing FlightAware ADS-B (KMCO)
05:33PM 30.1625 -82.6065 North 454 522 36,400 780 Climbing FlightAware ADS-B (KMCO)
05:34PM 30.2146 -82.6027 North 457 526 36,600 600 Climbing FlightAware ADS-B (KMCO)
05:34PM 30.2890 -82.5975 North 458 527 37,000 300 Climbing FlightAware ADS-B (KMCO)
05:35PM 30.3747 -82.5916 North 462 532 37,000  Level FlightAware ADS-B (KMCO)
05:36PM 30.4597 -82.5853 North 461 531 37,000  Level FlightAware ADS-B (KMCO)
05:36PM 30.5232 -82.5807 North 460 529 37,000  Level FlightAware ADS-B (KMCO)
05:37PM 30.5865 -82.5761 North 458 527 37,000  Level FlightAware ADS-B (KMCO)
05:37PM 30.6812 -82.5481 22° Northeast 477 549 37,000  Level FlightAware ADS-B (KMCO)
05:39PM 30.8415 -82.4729 22° Northeast 472 543 37,000  Level FlightAware ADS-B (KMCO)
05:40PM 30.9922 -82.4056 22° Northeast 463 533 37,000  Level Jacksonville Center
05:41PM 31.1111 -82.3514 21° North 469 540 37,000  Level Jacksonville Center
05:42PM 31.2361 -82.3336 North 463 533 37,000  Level Jacksonville Center
05:43PM 31.3533 -82.3744 343° North 433 498 37,000  Level Jacksonville Center
05:44PM 31.4578 -82.4081 345° North 428 493 37,000  Level Jacksonville Center
05:46PM 31.7119 -82.5008 343° North 437 503 37,000  Level Atlanta Center
05:47PM 31.8272 -82.5453 342° North 437 503 37,000  Level Atlanta Center
05:48PM 31.9425 -82.5875 343° North 432 497 37,000  Level Atlanta Center
05:50PM 32.1772 -82.6719 344° North 432 497 37,000  Level Atlanta Center
05:51PM 32.2947 -82.7144 343° North 432 497 37,000  Level Atlanta Center
05:52PM 32.4142 -82.7569 343° North 437 503 37,000  Level Atlanta Center
05:53PM 32.5231 -82.7997 342° North 437 503 37,000  Level Atlanta Center
05:54PM 32.6403 -82.8425 343° North 430 495 37,000  Level Atlanta Center
05:55PM 32.7575 -82.8803 345° North 430 495 37,000  Level Atlanta Center
06:00PM 33.3250 -83.0917 346° North 435 501 37,000  Level Atlanta Center
06:04PM 33.7565 -83.2503 343° North  Level FlightAware Approximate
06:05PM 33.8745 -83.2945 343° North  Level FlightAware Approximate
06:06PM 33.9936 -83.3347 346° North  Level FlightAware Approximate
06:07PM 34.1889 -83.3931 347° North 431 496 37,000  Level FlightAware ADS-B (KDZJ)
06:08PM 34.2652 -83.4150 347° North 432 497 37,000  Level FlightAware ADS-B (KDZJ)
06:09PM 34.3452 -83.4379 347° North 432 497 37,000  Level FlightAware ADS-B (KDZJ)
06:09PM 34.4187 -83.4591 347° North 433 498 37,000  Level FlightAware ADS-B (KDZJ)
06:10PM 34.5001 -83.4825 347° North 433 498 37,000  Level FlightAware ADS-B (KDZJ)
06:11PM 34.5665 -83.5016 347° North 431 496 37,000  Level FlightAware ADS-B (KDZJ)
06:11PM 34.6546 -83.5270 347° North 428 493 37,000  Level FlightAware ADS-B (KDZJ)
06:12PM 34.7349 -83.5503 346° North 418 481 37,000  Level FlightAware ADS-B (KDZJ)
06:13PM 34.8078 -83.5714 346° North 417 480 37,000 120 Level FlightAware ADS-B (KDZJ)
06:13PM 34.8886 -83.5949 347° North 429 494 37,200 420 Climbing FlightAware ADS-B (KDZJ)
06:14PM 34.9577 -83.6149 347° North 429 494 37,600 600 Climbing FlightAware ADS-B (KDZJ)
06:15PM 35.0434 -83.6400 346° North 429 494 38,000 300 Climbing FlightAware ADS-B (KDZJ)
06:15PM 35.1200 -83.6626 346° North 418 481 38,000  Level FlightAware ADS-B (KDZJ)
06:16PM 35.1948 -83.6844 347° North 427 491 38,000  Level FlightAware ADS-B (KDZJ)
06:17PM 35.2716 -83.7069 346° North 430 495 38,000  Level FlightAware ADS-B (KDZJ)
06:17PM 35.3377 -83.7264 347° North 432 497 38,000 60 Level FlightAware ADS-B (KDZJ)
06:18PM 35.4186 -83.7502 347° North 432 497 38,100  Climbing FlightAware ADS-B (KDZJ)
06:19PM 35.4903 -83.7712 347° North 431 496 38,000 -60 Descending FlightAware ADS-B (KDZJ)
06:26PM 36.4055 -83.9680 353° North 429 494 38,000  Level FlightAware ADS-B (KMDQ)
06:28PM 36.5847 -83.9942 353° North 430 495 38,000  Level Indianapolis Center
06:30PM 36.8856 -84.0396 353° North 430 495 38,000  Level FlightAware ADS-B (KMDQ)
06:34PM 37.2532 -84.0958 353° North  Level FlightAware Approximate
06:34PM 37.2628 -84.0964 353° North 421 484 38,000  Level FlightAware ADS-B (KCVG)
06:39PM 37.9193 -84.1968 353° North 428 493 38,000 -120 Level FlightAware ADS-B (KCVG)
06:43PM 38.3746 -84.3315 North 438 504 37,000 -420 Descending FlightAware ADS-B (KCVG)
06:45PM 38.5608 -84.3039 North 443 510 36,000 -480 Descending FlightAware ADS-B (KCVG)
06:45PM 38.6339 -84.2933 North 445 512 36,000  Level FlightAware ADS-B (KPMH)
06:46PM 38.7040 -84.2831 North 444 511 36,000  Level FlightAware ADS-B (KCVG)
06:46PM 38.7840 -84.2713 North 444 511 36,000  Level FlightAware ADS-B (KPMH)
06:47PM 38.8465 -84.2620 North 445 512 36,000 -240 Level FlightAware ADS-B (KPMH)
06:48PM 38.9127 -84.2521 North 445 512 35,800 -720 Descending FlightAware ADS-B (KPMH)
06:48PM 38.9744 -84.2427 North 442 509 35,300 -780 Descending FlightAware ADS-B (KPMH)
06:49PM 39.0332 -84.2340 North 447 514 35,000 -300 Descending FlightAware ADS-B (KPMH)
06:49PM 39.1200 -84.2211 North 447 514 35,000  Level FlightAware ADS-B (KPMH)
06:50PM 39.1923 -84.2103 North 448 516 35,000 -720 Level FlightAware ADS-B (KPMH)
06:50PM 39.2669 -84.1990 North 443 510 34,100 -1,440 Descending FlightAware ADS-B (KPMH)
06:51PM 39.3413 -84.1878 North 449 517 33,300 -1,680 Descending FlightAware ADS-B (KPMH)
06:52PM 39.4186 -84.1762 North 450 518 32,200 -1,560 Descending FlightAware ADS-B (KPMH)
06:53PM 39.5372 -84.1583 North 449 517 30,700 -1,440 Descending Indianapolis Center
06:54PM 39.6583 -84.1403 North 443 510 29,200 -1,500 Descending Indianapolis Center
06:55PM 39.7764 -84.1217 North 434 499 27,600 -1,500 Descending Indianapolis Center
06:56PM 39.8900 -84.1058 North 418 481 26,100 -1,500 Descending Indianapolis Center
06:57PM 40.0008 -84.0875 North 406 467 24,600 -1,020 Descending Indianapolis Center
06:58PM 40.1322 -84.0683 North 400 460 24,000 -540 Descending Indianapolis Center
06:59PM 40.2411 -84.0503 North 398 458 23,500 -720 Descending Indianapolis Center
07:00PM 40.3481 -84.0225 11° North 393 452 22,500 -1,080 Descending Indianapolis Center
07:01PM 40.4564 -83.9867 14° North 395 455 21,300 -1,500 Descending Indianapolis Center
07:02PM 40.5631 -83.9486 15° North 396 456 19,400 -1,440 Descending Indianapolis Center
07:04PM 40.7700 -83.8778 15° North 386 444 17,000 -1,560 Descending Indianapolis Center
07:05PM 40.9150 -83.8278 15° North 386 444 14,200 -2,040 Descending Cleveland Center
07:06PM 41.0206 -83.7906 15° North 389 448 12,300 -1,560 Descending Cleveland Center
07:07PM 41.1214 -83.7550 15° North 349 402 11,000 -1,260 Descending Cleveland Center
07:09PM 41.2611 -83.7058 15° North 307 353 8,800 -1,020 Descending Indianapolis Center
07:11PM 41.3636 -83.6700 15° North 301 346 7,900 -960 Descending Cleveland Center
07:13PM 41.5706 -83.6333 North 257 296 5,000 -1,200 Descending Indianapolis Center
07:14PM 41.6142 -83.6442 349° North 207 238 3,300 -1,680 Descending Indianapolis Center
07:19PM 41.5833 -83.8000 253° West  Level FlightAware Approximate
07:26PM 41.5868 -83.8078 253° West  Level Estimated
07:27PM 41.5868 -83.8078 253° West  Level Estimated
07:28PM 41.5833 -83.8000 253° West  Level FlightAware Approximate